| time (UTC) | temp F | wind direction | speed MPH | gust MPH | rain 1hr in | rain 24hr in | rain mn in | humidity % | barometer mb |
| 20260904133421 | 70 | 153 | 1.0 | 2.0 | 0.38 | 1.36 | 1.28 | 99 | 1012.9 |
| 20260904132920 | 70 | 202 | 0.0 | 0.0 | 0.40 | 1.36 | 1.27 | 99 | 1013.4 |
| 20260904132421 | 70 | 270 | 1.0 | 2.0 | 0.44 | 1.36 | 1.27 | 100 | 1013.6 |
| 20260904131941 | 70 | 166 | 0.0 | 1.0 | 0.47 | 1.36 | 1.27 | 99 | 1013.5 |
| 20260904131421 | 70 | 116 | 0.0 | 0.0 | 0.47 | 1.36 | 1.27 | 98 | 1014.1 |
| 20260904130921 | 70 | 200 | 0.0 | 0.0 | 0.48 | 1.36 | 1.27 | 98 | 1013.8 |
| 20260904130438 | 70 | 191 | 1.0 | 2.0 | 0.49 | 1.35 | 1.27 | 97 | 1013.7 |
| 20260904125935 | 70 | 327 | 4.0 | 10.0 | 0.48 | 1.33 | 1.24 | 97 | 1013.1 |
| 20260904125418 | 70 | 191 | 2.0 | 2.0 | 0.48 | 1.31 | 1.23 | 98 | 1012.5 |
| 20260904124918 | 70 | 161 | 2.0 | 3.0 | 0.46 | 1.28 | 1.20 | 99 | 1011.9 |
| 20260904124421 | 70 | 126 | 2.0 | 4.0 | 0.29 | 1.09 | 1.01 | 100 | 1012.6 |
| 20260904123922 | 70 | 285 | 1.0 | 2.0 | 0.22 | 1.01 | 0.93 | 100 | 1012.8 |
| 20260904123441 | 70 | 131 | 2.0 | 2.0 | 0.21 | 0.98 | 0.90 | 100 | 1013.0 |
| 20260904122916 | 70 | 117 | 2.0 | 3.0 | 0.20 | 0.96 | 0.88 | 100 | 1012.6 |
| 20260904122422 | 70 | 131 | 2.0 | 3.0 | 0.18 | 0.91 | 0.83 | 100 | 1012.2 |
| 20260904121942 | 70 | 134 | 2.0 | 3.0 | 0.18 | 0.89 | 0.81 | 100 | 1012.3 |
| 20260904121422 | 70 | 133 | 2.0 | 3.0 | 0.21 | 0.88 | 0.80 | 100 | 1012.1 |
| 20260904120919 | 70 | 139 | 3.0 | 4.0 | 0.32 | 0.88 | 0.80 | 100 | 1012.4 |
| 20260904120422 | 70 | 165 | 3.0 | 4.0 | 0.43 | 0.86 | 0.78 | 100 | 1012.6 |
| 20260904115922 | 70 | 100 | 2.0 | 3.0 | 0.62 | 0.84 | 0.76 | 100 | 1012.1 |
| 20260904115422 | 70 | 171 | 2.0 | 3.0 | 0.69 | 0.83 | 0.75 | 100 | 1012.3 |
| 20260904114922 | 70 | 158 | 2.0 | 2.0 | 0.69 | 0.82 | 0.74 | 100 | 1012.0 |
| 20260904114442 | 70 | 191 | 2.0 | 2.0 | 0.67 | 0.80 | 0.72 | 100 | 1012.1 |
| 20260904113922 | 70 | 242 | 4.0 | 5.0 | 0.66 | 0.79 | 0.70 | 99 | 1012.2 |
| 20260904113442 | 70 | 178 | 2.0 | 2.0 | 0.66 | 0.78 | 0.69 | 99 | 1011.9 |
| 20260904112919 | 70 | 188 | 2.0 | 3.0 | 0.66 | 0.76 | 0.68 | 99 | 1012.0 |
| 20260904112420 | 70 | 141 | 3.0 | 6.0 | 0.65 | 0.74 | 0.66 | 99 | 1012.3 |
| 20260904111918 | 70 | 161 | 2.0 | 2.0 | 0.62 | 0.72 | 0.63 | 99 | 1012.4 |
| 20260904111423 | 71 | 185 | 2.0 | 2.0 | 0.59 | 0.71 | 0.59 | 98 | 1012.1 |
| 20260904110917 | 71 | 90 | 2.0 | 3.0 | 0.48 | 0.61 | 0.48 | 98 | 1012.5 |
| 20260904110417 | 71 | 73 | 4.0 | 7.0 | 0.35 | 0.48 | 0.35 | 97 | 1012.9 |
| 20260904105918 | 71 | 263 | 2.0 | 5.0 | 0.14 | 0.27 | 0.14 | 97 | 1012.6 |
| 20260904105436 | 71 | 57 | 3.0 | 3.0 | 0.06 | 0.19 | 0.06 | 97 | 1012.5 |
| 20260904104917 | 71 | 354 | 3.0 | 4.0 | 0.05 | 0.18 | 0.05 | 96 | 1012.0 |
| 20260904104418 | 72 | 0.0 | 0.0 | 0.05 | 0.17 | 0.05 | 95 | 1010.8 | |
| 20260904103920 | 72 | 0.0 | 0.0 | 0.04 | 0.17 | 0.04 | 94 | 1011.0 | |
| 20260904103422 | 72 | 0.0 | 0.0 | 0.03 | 0.16 | 0.03 | 93 | 1011.1 | |
| 20260904102923 | 72 | 0.0 | 0.0 | 0.02 | 0.15 | 0.02 | 93 | 1010.9 | |
| 20260904102419 | 72 | 0.0 | 0.0 | 0.01 | 0.13 | 0.01 | 93 | 1010.9 | |
| 20260904101923 | 72 | 0.0 | 0.0 | 0.00 | 0.13 | 0.00 | 93 | 1010.8 | |
| 20260904101423 | 72 | 142 | 1.0 | 2.0 | 0.00 | 0.13 | 0.00 | 93 | 1010.5 |
| 20260904100923 | 72 | 111 | 0.0 | 0.0 | 0.00 | 0.13 | 0.00 | 93 | 1010.7 |
| 20260904100423 | 72 | 0.0 | 0.0 | 0.00 | 0.13 | 0.00 | 93 | 1010.4 | |
| 20260904095923 | 72 | 135 | 0.0 | 0.0 | 0.00 | 0.13 | 0.00 | 93 | 1010.5 |
| 20260904095423 | 72 | 0.0 | 0.0 | 0.00 | 0.13 | 0.00 | 93 | 1010.7 | |
| 20260904094923 | 72 | 0.0 | 0.0 | 0.00 | 0.13 | 0.00 | 94 | 1010.6 | |
| 20260904094423 | 72 | 0.0 | 0.0 | 0.00 | 0.13 | 0.00 | 94 | 1010.3 | |
| 20260904093923 | 72 | 0.0 | 0.0 | 0.00 | 0.13 | 0.00 | 94 | 1010.2 | |
| 20260904093423 | 72 | 0.0 | 0.0 | 0.00 | 0.13 | 0.00 | 94 | 1010.5 | |
| 20260904092924 | 72 | 0.0 | 0.0 | 0.00 | 0.13 | 0.00 | 94 | 1010.7 | |
| 20260904092443 | 72 | 0.0 | 0.0 | 0.00 | 0.13 | 0.00 | 94 | 1010.5 | |
| 20260904091924 | 72 | 135 | 0.0 | 0.0 | 0.00 | 0.13 | 0.00 | 93 | 1010.1 |
| 20260904091424 | 72 | 0.0 | 0.0 | 0.00 | 0.13 | 0.00 | 93 | 1010.2 | |
| 20260904090924 | 72 | 90 | 0.0 | 0.0 | 0.00 | 0.13 | 0.00 | 94 | 1010.4 |
| 20260904090424 | 72 | 0.0 | 0.0 | 0.00 | 0.13 | 0.00 | 94 | 1010.6 | |
| 20260904085924 | 71 | 218 | 1.0 | 2.0 | 0.00 | 0.13 | 0.00 | 94 | 1010.1 |
| 20260904085424 | 71 | 0.0 | 0.0 | 0.00 | 0.13 | 0.00 | 94 | 1009.9 | |
| 20260904084924 | 71 | 0.0 | 0.0 | 0.00 | 0.13 | 0.00 | 94 | 1009.9 | |
| 20260904084424 | 71 | 0.0 | 0.0 | 0.00 | 0.13 | 0.00 | 94 | 1010.2 | |
| 20260904083924 | 71 | 0.0 | 0.0 | 0.00 | 0.13 | 0.00 | 94 | 1010.4 | |
| 20260904083425 | 71 | 0.0 | 0.0 | 0.00 | 0.13 | 0.00 | 94 | 1010.5 | |
| 20260904082924 | 71 | 0.0 | 0.0 | 0.00 | 0.13 | 0.00 | 95 | 1010.6 | |
| 20260904082424 | 72 | 132 | 0.0 | 0.0 | 0.00 | 0.13 | 0.00 | 94 | 1010.6 |
| 20260904081924 | 72 | 0.0 | 0.0 | 0.00 | 0.13 | 0.00 | 95 | 1010.8 | |
| 20260904081425 | 72 | 0.0 | 0.0 | 0.00 | 0.13 | 0.00 | 95 | 1010.8 | |
| 20260904080925 | 72 | 0.0 | 0.0 | 0.00 | 0.13 | 0.00 | 94 | 1010.7 | |
| 20260904080425 | 72 | 0.0 | 0.0 | 0.00 | 0.13 | 0.00 | 94 | 1010.7 | |
| 20260904075925 | 72 | 0.0 | 0.0 | 0.00 | 0.13 | 0.00 | 95 | 1010.7 | |
| 20260904075425 | 71 | 0.0 | 0.0 | 0.00 | 0.13 | 0.00 | 95 | 1010.6 | |
| 20260904074945 | 71 | 0.0 | 0.0 | 0.00 | 0.13 | 0.00 | 95 | 1010.6 | |
| 20260904074425 | 71 | 0.0 | 0.0 | 0.00 | 0.13 | 0.00 | 95 | 1010.6 | |
| 20260904073925 | 71 | 0.0 | 0.0 | 0.00 | 0.13 | 0.00 | 95 | 1010.5 | |
| 20260904073425 | 71 | 0.0 | 0.0 | 0.00 | 0.13 | 0.00 | 95 | 1010.3 | |
| 20260904072925 | 71 | 135 | 0.0 | 0.0 | 0.00 | 0.13 | 0.00 | 95 | 1010.3 |
| 20260904072426 | 71 | 138 | 0.0 | 1.0 | 0.00 | 0.13 | 0.00 | 94 | 1010.7 |
| 20260904071926 | 71 | 0.0 | 0.0 | 0.00 | 0.13 | 0.00 | 94 | 1011.0 | |
| 20260904071526 | 71 | 0.0 | 0.0 | 0.00 | 0.13 | 0.00 | 94 | 1011.0 | |
| 20260904070926 | 71 | 0.0 | 0.0 | 0.00 | 0.13 | 0.00 | 94 | 1011.1 | |
| 20260904070426 | 71 | 0.0 | 0.0 | 0.00 | 0.13 | 0.00 | 95 | 1011.0 | |
| 20260904065926 | 71 | 0.0 | 0.0 | 0.00 | 0.13 | 0.00 | 95 | 1011.0 | |
| 20260904065426 | 71 | 347 | 0.0 | 1.0 | 0.00 | 0.13 | 0.00 | 95 | 1011.2 |
| 20260904064926 | 71 | 0.0 | 0.0 | 0.00 | 0.13 | 0.00 | 95 | 1010.8 | |
| 20260904064426 | 71 | 114 | 0.0 | 0.0 | 0.00 | 0.13 | 0.00 | 95 | 1010.7 |
| 20260904063926 | 71 | 0.0 | 0.0 | 0.00 | 0.13 | 0.00 | 95 | 1010.3 | |
| 20260904063426 | 71 | 0.0 | 0.0 | 0.00 | 0.13 | 0.00 | 95 | 1010.1 | |
| 20260904062926 | 71 | 167 | 0.0 | 1.0 | 0.00 | 0.13 | 0.00 | 95 | 1010.4 |
| 20260904062426 | 71 | 0.0 | 0.0 | 0.00 | 0.13 | 0.00 | 95 | 1010.6 | |
| 20260904062007 | 71 | 0.0 | 0.0 | 0.00 | 0.13 | 0.00 | 96 | 1010.9 | |
| 20260904061427 | 71 | 0.0 | 0.0 | 0.00 | 0.13 | 0.00 | 96 | 1011.0 | |
| 20260904060927 | 71 | 0.0 | 0.0 | 0.00 | 0.13 | 0.00 | 96 | 1011.2 | |
| 20260904060427 | 71 | 0.0 | 0.0 | 0.00 | 0.13 | 0.00 | 96 | 1011.5 | |
| 20260904055927 | 71 | 0.0 | 0.0 | 0.00 | 0.13 | 0.00 | 96 | 1011.5 | |
| 20260904055427 | 71 | 0.0 | 0.0 | 0.00 | 0.13 | 0.00 | 96 | 1011.6 | |
| 20260904054927 | 71 | 212 | 0.0 | 1.0 | 0.00 | 0.13 | 0.00 | 97 | 1011.7 |
| 20260904054428 | 71 | 221 | 0.0 | 1.0 | 0.00 | 0.13 | 0.00 | 96 | 1011.8 |
| 20260904053915 | 71 | 173 | 0.0 | 1.0 | 0.00 | 0.13 | 0.00 | 97 | 1011.9 |
| 20260904053436 | 71 | 160 | 0.0 | 2.0 | 0.00 | 0.13 | 0.00 | 96 | 1011.9 |
| 20260904052956 | 71 | 0.0 | 0.0 | 0.00 | 0.13 | 0.00 | 97 | 1012.0 | |
| 20260904052416 | 71 | 0.0 | 0.0 | 0.00 | 0.13 | 0.00 | 97 | 1012.1 | |
| 20260904051916 | 71 | 274 | 0.0 | 1.0 | 0.00 | 0.13 | 0.00 | 97 | 1011.9 |
| 20260904051416 | 71 | 0.0 | 0.0 | 0.00 | 0.13 | 0.00 | 97 | 1011.7 | |
| 20260904050916 | 71 | 150 | 0.0 | 1.0 | 0.00 | 0.13 | 0.00 | 97 | 1011.6 |
| 20260904050416 | 71 | 0.0 | 0.0 | 0.00 | 0.13 | 0.00 | 97 | 1011.6 | |
| 20260904045916 | 71 | 117 | 0.0 | 1.0 | 0.00 | 0.13 | 0.00 | 97 | 1011.8 |
| 20260904045416 | 71 | 256 | 0.0 | 1.0 | 0.00 | 0.13 | 0.00 | 97 | 1011.6 |
| 20260904044916 | 71 | 89 | 0.0 | 0.0 | 0.00 | 0.13 | 0.00 | 97 | 1011.6 |
| 20260904044416 | 71 | 0.0 | 0.0 | 0.00 | 0.13 | 0.00 | 97 | 1011.7 | |
| 20260904043916 | 71 | 133 | 0.0 | 1.0 | 0.00 | 0.13 | 0.00 | 96 | 1011.8 |
| 20260904043416 | 71 | 0.0 | 0.0 | 0.00 | 0.13 | 0.00 | 96 | 1011.9 | |
| 20260904042916 | 71 | 136 | 0.0 | 2.0 | 0.00 | 0.13 | 0.00 | 96 | 1012.1 |
| 20260904042417 | 71 | 58 | 0.0 | 0.0 | 0.00 | 0.13 | 0.00 | 95 | 1012.1 |
| 20260904041917 | 71 | 59 | 0.0 | 1.0 | 0.00 | 0.13 | 0.00 | 95 | 1012.2 |
| 20260904041417 | 71 | 0.0 | 0.0 | 0.00 | 0.13 | 0.00 | 95 | 1012.2 | |
| 20260904040917 | 72 | 0.0 | 0.0 | 0.00 | 0.13 | 0.00 | 95 | 1012.3 | |
| 20260904040457 | 72 | 0.0 | 0.0 | 0.00 | 0.13 | 0.00 | 96 | 1012.4 | |
| 20260904035917 | 72 | 243 | 0.0 | 1.0 | 0.00 | 0.13 | 0.13 | 95 | 1012.2 |
| 20260904035457 | 72 | 251 | 0.0 | 2.0 | 0.00 | 0.13 | 0.13 | 95 | 1012.3 |
| 20260904034917 | 72 | 0.0 | 0.0 | 0.00 | 0.13 | 0.13 | 94 | 1012.3 | |
| 20260904034417 | 72 | 0.0 | 0.0 | 0.00 | 0.13 | 0.13 | 94 | 1012.4 | |
| 20260904033917 | 72 | 0.0 | 0.0 | 0.00 | 0.13 | 0.13 | 94 | 1012.4 | |
| 20260904033417 | 72 | 0.0 | 0.0 | 0.00 | 0.13 | 0.13 | 93 | 1012.4 | |
| 20260904032918 | 72 | 0.0 | 0.0 | 0.00 | 0.13 | 0.13 | 93 | 1012.4 | |
| 20260904032417 | 72 | 0.0 | 0.0 | 0.00 | 0.13 | 0.13 | 93 | 1012.5 | |
| 20260904031938 | 72 | 0.0 | 0.0 | 0.00 | 0.13 | 0.13 | 93 | 1012.5 | |
| 20260904031438 | 72 | 0.0 | 0.0 | 0.00 | 0.13 | 0.13 | 93 | 1012.4 | |
| 20260904030918 | 72 | 0.0 | 0.0 | 0.00 | 0.13 | 0.13 | 92 | 1012.4 | |
| 20260904030418 | 72 | 0.0 | 0.0 | 0.00 | 0.13 | 0.13 | 92 | 1012.3 | |
| 20260904025918 | 73 | 0.0 | 0.0 | 0.00 | 0.13 | 0.13 | 92 | 1012.4 | |
| 20260904025418 | 73 | 0.0 | 0.0 | 0.00 | 0.13 | 0.13 | 92 | 1012.3 | |
| 20260904024918 | 73 | 0.0 | 0.0 | 0.00 | 0.13 | 0.13 | 92 | 1012.3 | |
| 20260904024415 | 73 | 0.0 | 0.0 | 0.00 | 0.13 | 0.13 | 92 | 1012.4 | |
| 20260904023916 | 73 | 0.0 | 0.0 | 0.00 | 0.13 | 0.13 | 91 | 1012.3 | |
| 20260904023415 | 73 | 0.0 | 0.0 | 0.00 | 0.13 | 0.13 | 91 | 1012.2 | |
| 20260904022935 | 73 | 0.0 | 0.0 | 0.00 | 0.13 | 0.13 | 91 | 1012.2 | |
| 20260904022415 | 73 | 0.0 | 0.0 | 0.00 | 0.13 | 0.13 | 91 | 1012.1 | |
| 20260904021916 | 73 | 0.0 | 0.0 | 0.00 | 0.13 | 0.13 | 90 | 1012.2 | |
| 20260904021436 | 73 | 0.0 | 0.0 | 0.00 | 0.13 | 0.13 | 91 | 1012.1 | |
| 20260904020916 | 73 | 0.0 | 0.0 | 0.00 | 0.13 | 0.13 | 91 | 1011.9 | |
| 20260904020416 | 73 | 0.0 | 0.0 | 0.00 | 0.13 | 0.13 | 90 | 1011.9 | |
| 20260904015916 | 73 | 0.0 | 0.0 | 0.00 | 0.13 | 0.13 | 90 | 1011.8 | |
| 20260904015416 | 73 | 0.0 | 0.0 | 0.00 | 0.14 | 0.13 | 90 | 1011.9 | |
| 20260904014936 | 73 | 0.0 | 0.0 | 0.00 | 0.16 | 0.13 | 90 | 1011.9 | |
| 20260904014416 | 73 | 0.0 | 0.0 | 0.00 | 0.16 | 0.13 | 90 | 1011.8 | |
| 20260904013937 | 73 | 0.0 | 0.0 | 0.00 | 0.16 | 0.13 | 90 | 1011.8 | |
| 20260904013416 | 73 | 0.0 | 0.0 | 0.00 | 0.16 | 0.13 | 91 | 1011.7 | |
| 20260904012916 | 73 | 0.0 | 0.0 | 0.00 | 0.16 | 0.13 | 91 | 1011.8 | |
| 20260904012417 | 73 | 106 | 0.0 | 1.0 | 0.00 | 0.16 | 0.13 | 90 | 1011.6 |
| 20260904011916 | 73 | 245 | 0.0 | 2.0 | 0.00 | 0.16 | 0.13 | 91 | 1011.8 |
| 20260904011417 | 73 | 132 | 1.0 | 2.0 | 0.00 | 0.16 | 0.13 | 91 | 1011.5 |
| 20260904010917 | 73 | 0.0 | 0.0 | 0.00 | 0.16 | 0.13 | 90 | 1011.7 | |
| 20260904010417 | 73 | 0.0 | 0.0 | 0.00 | 0.16 | 0.13 | 90 | 1011.7 | |
| 20260904005917 | 73 | 0.0 | 0.0 | 0.00 | 0.16 | 0.13 | 90 | 1011.6 | |
| 20260904005417 | 73 | 0.0 | 0.0 | 0.00 | 0.16 | 0.13 | 90 | 1011.6 | |
| 20260904004917 | 73 | 0.0 | 0.0 | 0.00 | 0.16 | 0.13 | 90 | 1011.6 | |
| 20260904004417 | 74 | 0.0 | 0.0 | 0.00 | 0.16 | 0.13 | 89 | 1011.6 | |
| 20260904003917 | 74 | 0.0 | 0.0 | 0.00 | 0.16 | 0.13 | 89 | 1011.5 | |
| 20260904003417 | 74 | 0.0 | 0.0 | 0.00 | 0.16 | 0.13 | 88 | 1011.4 | |
| 20260904002917 | 74 | 0.0 | 0.0 | 0.00 | 0.16 | 0.13 | 87 | 1011.3 | |
| 20260904002417 | 75 | 0.0 | 0.0 | 0.00 | 0.16 | 0.13 | 86 | 1011.3 | |
| 20260904001917 | 75 | 0.0 | 0.0 | 0.00 | 0.16 | 0.13 | 86 | 1011.3 | |
| 20260904001418 | 75 | 0.0 | 0.0 | 0.00 | 0.16 | 0.13 | 86 | 1011.2 | |
| 20260904000917 | 75 | 0.0 | 0.0 | 0.00 | 0.16 | 0.13 | 86 | 1011.0 | |
| 20260904000418 | 75 | 0.0 | 0.0 | 0.00 | 0.16 | 0.13 | 86 | 1010.9 | |
| 20260903235918 | 75 | 0.0 | 0.0 | 0.00 | 0.16 | 0.13 | 86 | 1011.0 | |
| 20260903235418 | 75 | 130 | 0.0 | 0.0 | 0.00 | 0.16 | 0.13 | 86 | 1011.0 |
| 20260903234918 | 75 | 132 | 1.0 | 2.0 | 0.00 | 0.16 | 0.13 | 86 | 1010.9 |
| 20260903234418 | 76 | 0.0 | 0.0 | 0.00 | 0.16 | 0.13 | 86 | 1010.9 | |
| 20260903233915 | 76 | 141 | 1.0 | 2.0 | 0.00 | 0.16 | 0.13 | 86 | 1010.7 |
| 20260903233435 | 76 | 142 | 1.0 | 2.0 | 0.00 | 0.16 | 0.13 | 86 | 1010.9 |
| 20260903232935 | 76 | 0.0 | 0.0 | 0.00 | 0.16 | 0.13 | 86 | 1011.1 | |
| 20260903232415 | 76 | 0.0 | 0.0 | 0.00 | 0.16 | 0.13 | 86 | 1011.2 | |
| 20260903231916 | 76 | 139 | 1.0 | 2.0 | 0.00 | 0.16 | 0.13 | 85 | 1011.1 |
| 20260903231416 | 76 | 140 | 0.0 | 1.0 | 0.00 | 0.16 | 0.13 | 85 | 1011.0 |
| 20260903230915 | 76 | 0.0 | 0.0 | 0.00 | 0.16 | 0.13 | 86 | 1010.9 | |
| 20260903230416 | 76 | 136 | 1.0 | 2.0 | 0.00 | 0.16 | 0.13 | 85 | 1010.7 |
| 20260903225916 | 77 | 114 | 0.0 | 0.0 | 0.00 | 0.16 | 0.13 | 85 | 1010.7 |
| 20260903225416 | 77 | 122 | 2.0 | 2.0 | 0.00 | 0.16 | 0.13 | 85 | 1010.6 |
| 20260903224916 | 78 | 161 | 1.0 | 1.0 | 0.00 | 0.16 | 0.13 | 84 | 1010.7 |
| 20260903224516 | 78 | 0.0 | 0.0 | 0.00 | 0.16 | 0.13 | 83 | 1010.7 | |
| 20260903223936 | 79 | 76 | 0.0 | 1.0 | 0.00 | 0.16 | 0.13 | 82 | 1010.6 |
| 20260903223417 | 79 | 117 | 1.0 | 2.0 | 0.00 | 0.16 | 0.13 | 81 | 1010.5 |
| 20260903222917 | 79 | 124 | 0.0 | 1.0 | 0.00 | 0.16 | 0.13 | 81 | 1010.5 |
| 20260903222417 | 79 | 142 | 1.0 | 2.0 | 0.00 | 0.16 | 0.13 | 81 | 1010.5 |
| 20260903221916 | 79 | 132 | 1.0 | 2.0 | 0.00 | 0.16 | 0.13 | 82 | 1010.6 |
| 20260903221417 | 79 | 129 | 1.0 | 1.0 | 0.00 | 0.16 | 0.13 | 83 | 1010.6 |
| 20260903220916 | 79 | 135 | 1.0 | 3.0 | 0.00 | 0.16 | 0.13 | 84 | 1010.6 |
| 20260903220417 | 78 | 118 | 1.0 | 2.0 | 0.00 | 0.16 | 0.13 | 85 | 1010.6 |
| 20260903215917 | 78 | 149 | 2.0 | 2.0 | 0.00 | 0.16 | 0.13 | 86 | 1010.6 |
| 20260903215417 | 78 | 140 | 1.0 | 3.0 | 0.00 | 0.16 | 0.13 | 87 | 1010.8 |
| 20260903214917 | 78 | 107 | 0.0 | 2.0 | 0.00 | 0.16 | 0.13 | 87 | 1010.7 |
| 20260903214417 | 79 | 129 | 1.0 | 2.0 | 0.00 | 0.16 | 0.13 | 86 | 1010.9 |
| 20260903213917 | 79 | 145 | 1.0 | 2.0 | 0.00 | 0.16 | 0.13 | 85 | 1011.0 |
| 20260903213418 | 79 | 111 | 0.0 | 1.0 | 0.00 | 0.16 | 0.13 | 85 | 1010.9 |
| 20260903212918 | 78 | 111 | 0.0 | 2.0 | 0.00 | 0.16 | 0.13 | 86 | 1011.0 |
| 20260903212420 | 77 | 153 | 1.0 | 1.0 | 0.00 | 0.16 | 0.13 | 88 | 1011.1 |
| 20260903211920 | 77 | 137 | 1.0 | 2.0 | 0.00 | 0.16 | 0.13 | 89 | 1011.0 |
| 20260903211421 | 76 | 0.0 | 0.0 | 0.00 | 0.16 | 0.13 | 92 | 1011.0 | |
| 20260903210940 | 76 | 0.0 | 0.0 | 0.00 | 0.16 | 0.13 | 92 | 1011.1 | |
| 20260903210421 | 75 | 149 | 0.0 | 1.0 | 0.00 | 0.16 | 0.13 | 93 | 1010.9 |
| 20260903205921 | 75 | 155 | 0.0 | 1.0 | 0.00 | 0.16 | 0.13 | 93 | 1010.7 |
| 20260903205435 | 75 | 0.0 | 0.0 | 0.00 | 0.16 | 0.13 | 94 | 1010.7 | |
| 20260903204941 | 75 | 0.0 | 0.0 | 0.00 | 0.16 | 0.13 | 94 | 1010.6 | |
| 20260903204441 | 74 | 0.0 | 0.0 | 0.00 | 0.16 | 0.13 | 95 | 1010.6 | |
| 20260903203921 | 74 | 0.0 | 0.0 | 0.00 | 0.16 | 0.13 | 96 | 1010.4 | |
| 20260903203421 | 74 | 0.0 | 0.0 | 0.01 | 0.16 | 0.13 | 96 | 1010.3 | |
| 20260903202941 | 74 | 0.0 | 0.0 | 0.01 | 0.16 | 0.12 | 97 | 1010.6 | |
| 20260903202421 | 74 | 0.0 | 0.0 | 0.01 | 0.16 | 0.12 | 97 | 1010.5 | |
| 20260903201922 | 74 | 0.0 | 0.0 | 0.01 | 0.16 | 0.12 | 96 | 1010.7 | |
| 20260903201421 | 74 | 0.0 | 0.0 | 0.01 | 0.16 | 0.12 | 96 | 1011.0 | |
| 20260903200921 | 74 | 0.0 | 0.0 | 0.01 | 0.16 | 0.12 | 95 | 1011.1 | |
| 20260903200422 | 74 | 0.0 | 0.0 | 0.01 | 0.16 | 0.12 | 95 | 1011.4 | |
| 20260903200001 | 74 | 0.0 | 0.0 | 0.01 | 0.16 | 0.12 | 94 | 1011.4 | |
| 20260903195422 | 74 | 0.0 | 0.0 | 0.01 | 0.16 | 0.12 | 94 | 1011.3 | |
| 20260903194922 | 74 | 0.0 | 0.0 | 0.01 | 0.16 | 0.12 | 94 | 1011.3 | |
| 20260903194422 | 74 | 0.0 | 0.0 | 0.01 | 0.16 | 0.12 | 94 | 1011.4 | |
| 20260903193922 | 74 | 119 | 0.0 | 0.0 | 0.01 | 0.16 | 0.12 | 95 | 1011.5 |
| 20260903193422 | 74 | 0.0 | 0.0 | 0.01 | 0.15 | 0.12 | 94 | 1011.8 | |
| 20260903193003 | 74 | 103 | 1.0 | 1.0 | 0.02 | 0.15 | 0.12 | 94 | 1011.9 |
| 20260903192422 | 74 | 351 | 0.0 | 1.0 | 0.04 | 0.15 | 0.12 | 93 | 1011.5 |
| 20260903191922 | 73 | 0.0 | 0.0 | 0.05 | 0.15 | 0.12 | 92 | 1011.4 | |
| 20260903191422 | 73 | 65 | 0.0 | 0.0 | 0.05 | 0.15 | 0.12 | 92 | 1011.5 |
| 20260903190922 | 73 | 59 | 0.0 | 0.0 | 0.06 | 0.15 | 0.12 | 92 | 1011.7 |
| 20260903190423 | 73 | 0.0 | 0.0 | 0.07 | 0.15 | 0.12 | 92 | 1012.0 | |
| 20260903185922 | 73 | 346 | 0.0 | 0.0 | 0.07 | 0.15 | 0.12 | 92 | 1012.2 |
| 20260903185423 | 73 | 0.0 | 0.0 | 0.07 | 0.15 | 0.12 | 91 | 1012.4 | |
| 20260903184923 | 73 | 262 | 0.0 | 1.0 | 0.07 | 0.15 | 0.12 | 91 | 1012.5 |
| 20260903184423 | 73 | 188 | 0.0 | 1.0 | 0.07 | 0.15 | 0.12 | 90 | 1012.5 |
| 20260903183923 | 73 | 296 | 1.0 | 3.0 | 0.07 | 0.15 | 0.12 | 90 | 1012.6 |
| 20260903183443 | 74 | 42 | 2.0 | 3.0 | 0.06 | 0.14 | 0.11 | 89 | 1012.8 |
| 20260903182924 | 74 | 59 | 4.0 | 4.0 | 0.06 | 0.14 | 0.10 | 88 | 1012.8 |
| 20260903182423 | 75 | 319 | 0.0 | 1.0 | 0.04 | 0.12 | 0.08 | 86 | 1013.1 |
| 20260903181924 | 76 | 58 | 2.0 | 2.0 | 0.03 | 0.11 | 0.07 | 84 | 1013.5 |
| 20260903181437 | 77 | 60 | 2.0 | 5.0 | 0.02 | 0.10 | 0.07 | 80 | 1013.4 |
| 20260903180918 | 79 | 158 | 5.0 | 11.0 | 0.01 | 0.09 | 0.05 | 77 | 1013.3 |
| 20260903180418 | 79 | 283 | 3.0 | 6.0 | 0.00 | 0.08 | 0.05 | 74 | 1013.2 |
| 20260903175917 | 80 | 134 | 2.0 | 3.0 | 0.00 | 0.08 | 0.04 | 74 | 1013.5 |
| 20260903175418 | 80 | 93 | 2.0 | 5.0 | 0.00 | 0.08 | 0.04 | 74 | 1013.1 |
| 20260903174917 | 80 | 128 | 2.0 | 5.0 | 0.00 | 0.08 | 0.04 | 75 | 1012.8 |
| 20260903174424 | 80 | 98 | 2.0 | 4.0 | 0.00 | 0.08 | 0.04 | 79 | 1012.5 |
| 20260903173924 | 80 | 109 | 3.0 | 4.0 | 0.00 | 0.08 | 0.04 | 82 | 1012.3 |
| 20260903173424 | 80 | 59 | 2.0 | 3.0 | 0.00 | 0.08 | 0.04 | 83 | 1012.3 |
| 20260903172924 | 80 | 56 | 1.0 | 2.0 | 0.00 | 0.08 | 0.04 | 84 | 1012.2 |
| 20260903172424 | 80 | 39 | 3.0 | 4.0 | 0.00 | 0.08 | 0.04 | 83 | 1012.0 |
| 20260903171944 | 80 | 46 | 2.0 | 4.0 | 0.00 | 0.08 | 0.04 | 83 | 1011.8 |
| 20260903171424 | 80 | 27 | 3.0 | 4.0 | 0.00 | 0.08 | 0.04 | 83 | 1011.5 |
| 20260903170919 | 80 | 60 | 1.0 | 3.0 | 0.00 | 0.08 | 0.04 | 83 | 1011.5 |
| 20260903170425 | 80 | 41 | 2.0 | 4.0 | 0.00 | 0.08 | 0.04 | 83 | 1011.5 |
| 20260903165919 | 81 | 284 | 1.0 | 3.0 | 0.00 | 0.08 | 0.04 | 82 | 1011.2 |
| 20260903165418 | 81 | 241 | 2.0 | 5.0 | 0.00 | 0.08 | 0.04 | 82 | 1011.1 |
| 20260903164919 | 81 | 232 | 0.0 | 2.0 | 0.00 | 0.08 | 0.04 | 82 | 1010.8 |
| 20260903164419 | 81 | 46 | 1.0 | 4.0 | 0.00 | 0.08 | 0.04 | 81 | 1010.5 |
| 20260903163918 | 81 | 236 | 1.0 | 5.0 | 0.00 | 0.08 | 0.04 | 81 | 1010.2 |
| 20260903163419 | 81 | 45 | 2.0 | 6.0 | 0.00 | 0.08 | 0.04 | 80 | 1010.2 |
| 20260903162925 | 81 | 162 | 2.0 | 3.0 | 0.00 | 0.08 | 0.04 | 80 | 1010.1 |
| 20260903162425 | 81 | 220 | 2.0 | 3.0 | 0.00 | 0.08 | 0.04 | 80 | 1010.0 |
| 20260903161915 | 81 | 229 | 2.0 | 5.0 | 0.00 | 0.08 | 0.04 | 80 | 1009.9 |
| 20260903161459 | 81 | 249 | 3.0 | 5.0 | 0.00 | 0.08 | 0.04 | 82 | 1009.8 |
| 20260903160925 | 81 | 52 | 0.0 | 1.0 | 0.00 | 0.08 | 0.04 | 82 | 1010.0 |
| 20260903160445 | 81 | 301 | 3.0 | 3.0 | 0.00 | 0.08 | 0.04 | 82 | 1010.1 |
| 20260903155925 | 81 | 302 | 1.0 | 2.0 | 0.00 | 0.08 | 0.04 | 84 | 1010.2 |
| 20260903155445 | 81 | 173 | 1.0 | 2.0 | 0.00 | 0.08 | 0.04 | 84 | 1010.2 |
| 20260903154946 | 81 | 0.0 | 0.0 | 0.00 | 0.08 | 0.04 | 88 | 1010.2 | |
| 20260903154425 | 80 | 17 | 2.0 | 4.0 | 0.00 | 0.08 | 0.04 | 87 | 1010.2 |
| 20260903153925 | 80 | 0.0 | 0.0 | 0.00 | 0.08 | 0.04 | 93 | 1010.1 | |
| 20260903153426 | 80 | 220 | 0.0 | 0.0 | 0.00 | 0.08 | 0.04 | 93 | 1010.2 |
| 20260903152925 | 80 | 0.0 | 0.0 | 0.00 | 0.08 | 0.04 | 94 | 1010.3 | |
| 20260903152425 | 80 | 0.0 | 0.0 | 0.00 | 0.08 | 0.04 | 94 | 1010.3 | |
| 20260903151925 | 79 | 0.0 | 0.0 | 0.00 | 0.08 | 0.04 | 95 | 1010.4 | |
| 20260903151426 | 79 | 0.0 | 0.0 | 0.00 | 0.08 | 0.04 | 95 | 1010.5 | |
| 20260903150926 | 79 | 58 | 1.0 | 1.0 | 0.00 | 0.08 | 0.04 | 95 | 1010.7 |
| 20260903150426 | 79 | 0.0 | 0.0 | 0.00 | 0.08 | 0.04 | 95 | 1010.9 | |
| 20260903145946 | 79 | 0.0 | 0.0 | 0.00 | 0.08 | 0.04 | 95 | 1010.8 | |
| 20260903145426 | 79 | 112 | 0.0 | 0.0 | 0.00 | 0.08 | 0.04 | 95 | 1010.7 |
| 20260903144926 | 79 | 128 | 1.0 | 1.0 | 0.00 | 0.08 | 0.04 | 94 | 1010.8 |
| 20260903144426 | 79 | 72 | 0.0 | 1.0 | 0.00 | 0.08 | 0.04 | 95 | 1010.8 |
| 20260903143926 | 79 | 0.0 | 0.0 | 0.00 | 0.08 | 0.04 | 94 | 1010.8 | |
| 20260903143446 | 79 | 0.0 | 0.0 | 0.00 | 0.08 | 0.04 | 94 | 1010.7 | |
| 20260903142926 | 79 | 0.0 | 0.0 | 0.00 | 0.08 | 0.04 | 94 | 1010.6 | |
| 20260903142426 | 79 | 0.0 | 0.0 | 0.00 | 0.08 | 0.04 | 95 | 1010.7 | |
| 20260903141926 | 78 | 0.0 | 0.0 | 0.00 | 0.08 | 0.04 | 94 | 1010.7 | |
| 20260903141427 | 78 | 0.0 | 0.0 | 0.00 | 0.08 | 0.04 | 96 | 1010.7 | |
| 20260903140947 | 78 | 37 | 0.0 | 1.0 | 0.00 | 0.08 | 0.04 | 95 | 1010.6 |
| 20260903140447 | 77 | 0.0 | 0.0 | 0.00 | 0.08 | 0.04 | 98 | 1010.5 | |
| 20260903135927 | 77 | 0.0 | 0.0 | 0.00 | 0.08 | 0.04 | 99 | 1010.5 | |
| 20260903135427 | 76 | 0.0 | 0.0 | 0.00 | 0.08 | 0.04 | 99 | 1010.5 | |
| 20260903134927 | 76 | 0.0 | 0.0 | 0.00 | 0.08 | 0.04 | 99 | 1010.7 | |
| 20260903134427 | 76 | 35 | 1.0 | 2.0 | 0.00 | 0.08 | 0.04 | 99 | 1010.6 |
| 20260903133927 | 76 | 0.0 | 0.0 | 0.00 | 0.08 | 0.04 | 100 | 1010.5 |